Time;durP1;ratioP1;P1;durP2;ratioP2;P2;SDS_P1;SDS_P2;PMS_P1;PMS_P2;Temp;Humidity;BMP_temperature;BMP_pressure;BME280_temperature;BME280_humidity;BME280_pressure;Samples;Min_cycle;Max_cycle;Signal;HPM_P1;HPM_P2
2021/08/16 00:01:25;;;;;;;8.20;1.27;;;17.50;76.50;;;;;;5095044;28;20038;-76
2021/08/16 00:03:51;;;;;;;5.63;1.17;;;17.40;76.50;;;;;;5112253;28;20130;-77
2021/08/16 00:06:18;;;;;;;11.68;1.75;;;17.30;76.50;;;;;;5111365;28;20126;-77
2021/08/16 00:08:45;;;;;;;6.63;1.40;;;17.30;76.50;;;;;;5112909;27;20415;-78
2021/08/16 00:11:10;;;;;;;6.30;1.48;;;17.20;76.50;;;;;;5113108;28;20028;-82
2021/08/16 00:13:36;;;;;;;7.10;1.30;;;17.20;76.60;;;;;;5113592;28;20066;-77
2021/08/16 00:16:02;;;;;;;5.95;1.10;;;17.20;76.50;;;;;;5111679;28;20198;-77
2021/08/16 00:18:30;;;;;;;8.70;1.88;;;17.20;76.50;;;;;;5093439;28;20118;-76
2021/08/16 00:20:56;;;;;;;6.80;1.58;;;17.20;76.30;;;;;;5109642;28;20080;-78
2021/08/16 00:23:22;;;;;;;9.00;1.27;;;17.30;76.20;;;;;;5094485;28;20376;-77
2021/08/16 00:25:48;;;;;;;6.53;2.05;;;17.40;76.10;;;;;;5095030;28;20059;-77
2021/08/16 00:28:14;;;;;;;6.13;1.58;;;17.40;76.00;;;;;;5074288;28;20496;-81
2021/08/16 00:30:39;;;;;;;6.15;1.20;;;17.40;75.90;;;;;;5113587;28;20107;-75
2021/08/16 00:33:05;;;;;;;6.85;1.40;;;17.40;75.80;;;;;;5095181;28;20494;-77
2021/08/16 00:35:31;;;;;;;7.82;1.80;;;17.40;75.70;;;;;;5112466;28;20036;-77
2021/08/16 00:37:57;;;;;;;5.70;1.80;;;17.30;76.00;;;;;;5104733;28;20036;-77
2021/08/16 00:40:22;;;;;;;5.70;1.35;;;17.30;76.10;;;;;;5091543;28;20111;-78
2021/08/16 00:42:48;;;;;;;6.65;1.10;;;17.30;76.10;;;;;;5111936;28;20056;-78
2021/08/16 00:45:14;;;;;;;5.10;1.48;;;17.30;76.00;;;;;;5128725;27;20475;-84
2021/08/16 00:47:40;;;;;;;7.97;1.33;;;17.40;75.90;;;;;;5110936;28;20081;-77
2021/08/16 00:50:08;;;;;;;7.15;1.55;;;17.40;75.70;;;;;;5113035;28;20039;-76
2021/08/16 00:52:35;;;;;;;7.90;1.55;;;17.50;75.70;;;;;;5111732;28;20092;-77
2021/08/16 00:55:04;;;;;;;9.10;1.38;;;17.50;75.60;;;;;;5113826;27;20103;-76
2021/08/16 00:57:31;;;;;;;6.00;1.42;;;17.60;75.30;;;;;;5113840;28;20035;-77
2021/08/16 01:00:00;;;;;;;6.15;1.55;;;17.60;75.30;;;;;;5091203;28;20074;-77
2021/08/16 01:02:26;;;;;;;6.05;1.13;;;17.60;75.30;;;;;;5091519;28;20119;-77
2021/08/16 01:04:52;;;;;;;8.30;1.58;;;17.60;75.20;;;;;;5093277;28;20144;-78
2021/08/16 01:07:18;;;;;;;8.23;1.20;;;17.60;75.00;;;;;;5090304;28;20086;-82
2021/08/16 01:09:44;;;;;;;6.75;1.52;;;17.60;75.00;;;;;;5127076;27;20020;-76
2021/08/16 01:12:10;;;;;;;8.30;1.52;;;17.60;75.10;;;;;;5109424;28;20383;-75
2021/08/16 01:14:35;;;;;;;6.97;1.65;;;17.60;75.20;;;;;;5110931;28;20059;-76
2021/08/16 01:17:01;;;;;;;7.10;1.52;;;17.60;75.20;;;;;;5094621;28;20415;-77
2021/08/16 01:19:27;;;;;;;5.53;1.25;;;17.60;75.10;;;;;;5112418;28;20032;-77
2021/08/16 01:21:52;;;;;;;7.00;1.27;;;17.50;75.20;;;;;;5097524;28;20426;-76
2021/08/16 01:24:18;;;;;;;9.45;1.52;;;17.50;75.30;;;;;;5074582;28;20414;-76
2021/08/16 01:26:44;;;;;;;5.07;1.30;;;17.50;75.20;;;;;;5103756;28;20047;-77
2021/08/16 01:29:21;;;;;;;8.63;1.80;;;17.50;75.30;;;;;;5110824;28;20098;-77
2021/08/16 01:31:47;;;;;;;9.85;1.42;;;17.50;75.30;;;;;;5112261;28;20051;-75
2021/08/16 01:34:12;;;;;;;11.68;2.00;;;17.50;75.30;;;;;;5107150;28;20074;-77
2021/08/16 01:36:40;;;;;;;7.20;1.70;;;17.50;75.40;;;;;;5095998;28;20020;-77
2021/08/16 01:39:07;;;;;;;4.95;1.65;;;17.40;75.60;;;;;;5112029;28;20125;-76
2021/08/16 01:41:33;;;;;;;7.55;2.03;;;17.40;75.70;;;;;;5111989;28;20057;-76
2021/08/16 01:43:58;;;;;;;9.32;1.92;;;17.40;75.80;;;;;;5111152;28;20180;-77
2021/08/16 01:46:25;;;;;;;9.43;2.08;;;17.30;76.00;;;;;;5092501;28;20028;-83
2021/08/16 01:48:51;;;;;;;11.95;2.13;;;17.30;76.20;;;;;;5104172;28;20028;-76
2021/08/16 01:51:16;;;;;;;8.30;2.08;;;17.30;76.30;;;;;;5099032;28;20089;-77
2021/08/16 01:53:42;;;;;;;9.20;1.98;;;17.20;76.50;;;;;;5097881;28;20470;-77
2021/08/16 01:56:08;;;;;;;6.55;1.50;;;17.20;76.60;;;;;;5088747;28;20032;-77
2021/08/16 01:58:33;;;;;;;5.13;1.48;;;17.20;76.70;;;;;;5083786;28;20035;-76
2021/08/16 02:00:59;;;;;;;9.07;1.75;;;17.20;76.80;;;;;;5104722;28;20032;-76
2021/08/16 02:03:25;;;;;;;11.02;1.85;;;17.20;76.80;;;;;;5097616;28;20070;-82
2021/08/16 02:05:50;;;;;;;7.32;2.15;;;17.10;76.90;;;;;;5056169;28;20373;-77
2021/08/16 02:08:16;;;;;;;9.85;2.17;;;17.10;77.10;;;;;;5101660;28;20036;-77
2021/08/16 02:10:42;;;;;;;8.45;1.80;;;17.10;77.60;;;;;;5078323;28;20035;-80
2021/08/16 02:13:11;;;;;;;6.70;1.73;;;17.10;77.30;;;;;;5101596;28;20024;-77
2021/08/16 02:15:40;;;;;;;11.20;2.47;;;17.10;77.40;;;;;;5123520;27;20494;-76
2021/08/16 02:18:06;;;;;;;7.13;2.10;;;17.10;77.40;;;;;;5108087;28;20023;-77
2021/08/16 02:20:33;;;;;;;10.25;2.35;;;17.00;77.50;;;;;;5105912;28;20034;-77
2021/08/16 02:22:59;;;;;;;8.63;2.05;;;17.00;77.50;;;;;;5074536;28;20379;-77
2021/08/16 02:25:24;;;;;;;8.02;2.00;;;17.00;77.70;;;;;;5103113;28;20120;-76
2021/08/16 02:27:53;;;;;;;9.35;2.28;;;16.90;77.90;;;;;;5082933;28;20463;-77
2021/08/16 02:30:19;;;;;;;9.90;2.53;;;16.80;78.00;;;;;;5111654;28;20020;-77
2021/08/16 02:32:46;;;;;;;9.52;2.80;;;16.80;78.40;;;;;;5107363;28;20024;-75
2021/08/16 02:35:13;;;;;;;7.90;2.08;;;16.80;78.50;;;;;;5101743;28;20079;-76
2021/08/16 02:37:39;;;;;;;12.10;3.10;;;16.80;78.50;;;;;;5096217;28;20038;-75
2021/08/16 02:40:06;;;;;;;10.10;2.17;;;16.80;78.60;;;;;;5106918;28;20599;-76
2021/08/16 02:42:32;;;;;;;12.43;3.05;;;16.80;78.70;;;;;;5100673;28;20034;-75
2021/08/16 02:44:58;;;;;;;10.02;2.65;;;16.80;78.80;;;;;;5107042;28;20031;-76
2021/08/16 02:47:23;;;;;;;11.18;3.03;;;16.90;78.80;;;;;;5085651;28;20019;-76
2021/08/16 02:49:50;;;;;;;10.88;3.45;;;16.90;78.60;;;;;;5096961;28;20084;-76
2021/08/16 02:52:16;;;;;;;11.25;3.92;;;17.00;78.80;;;;;;5099388;28;20146;-77
2021/08/16 02:54:44;;;;;;;10.30;3.20;;;16.90;78.90;;;;;;5099152;28;20107;-76
2021/08/16 02:57:12;;;;;;;10.40;3.05;;;16.90;78.90;;;;;;5101210;28;20036;-76
2021/08/16 02:59:41;;;;;;;9.85;3.65;;;16.90;78.90;;;;;;5103441;28;20157;-76
2021/08/16 03:02:08;;;;;;;10.00;3.30;;;17.00;79.00;;;;;;5106580;28;20038;-77
2021/08/16 03:04:34;;;;;;;11.90;3.78;;;17.00;78.90;;;;;;5109038;28;20047;-80
2021/08/16 03:07:01;;;;;;;13.00;3.92;;;17.00;79.00;;;;;;5101817;28;20031;-76
2021/08/16 03:09:28;;;;;;;12.50;3.42;;;17.00;79.00;;;;;;5098129;28;20024;-78
2021/08/16 03:11:54;;;;;;;14.50;3.65;;;17.00;79.10;;;;;;5086997;28;20044;-76
2021/08/16 03:14:20;;;;;;;13.77;4.05;;;17.00;79.20;;;;;;5097592;28;20028;-77
2021/08/16 03:16:46;;;;;;;13.15;3.55;;;17.00;79.30;;;;;;5104236;28;20047;-76
2021/08/16 03:19:13;;;;;;;9.05;3.22;;;16.90;79.30;;;;;;5069528;28;20124;-76
2021/08/16 03:21:39;;;;;;;10.45;3.50;;;17.00;79.40;;;;;;5105178;28;20465;-76
2021/08/16 03:24:05;;;;;;;11.32;3.58;;;17.00;79.40;;;;;;5107317;28;20032;-77
2021/08/16 03:26:31;;;;;;;10.50;4.07;;;17.00;79.40;;;;;;5105936;28;20053;-77
2021/08/16 03:28:57;;;;;;;15.20;3.80;;;17.00;79.40;;;;;;5103979;28;20035;-77
2021/08/16 03:31:22;;;;;;;12.52;3.67;;;17.10;79.30;;;;;;5090600;28;20093;-76
2021/08/16 03:33:48;;;;;;;11.05;3.05;;;17.20;79.30;;;;;;5064874;28;20456;-76
2021/08/16 03:36:14;;;;;;;13.23;3.15;;;17.20;79.30;;;;;;5088275;28;20035;-77
2021/08/16 03:38:40;;;;;;;11.45;3.28;;;17.20;79.30;;;;;;5113752;28;20019;-77
2021/08/16 03:41:06;;;;;;;9.13;3.00;;;17.20;79.30;;;;;;5089455;28;20093;-76
2021/08/16 03:43:32;;;;;;;11.32;3.53;;;17.20;79.40;;;;;;5104570;28;20023;-76
2021/08/16 03:45:58;;;;;;;11.15;3.03;;;17.20;79.50;;;;;;5086018;28;20062;-76
2021/08/16 03:48:24;;;;;;;11.40;2.78;;;17.20;79.40;;;;;;5114289;28;20024;-76
2021/08/16 03:50:49;;;;;;;11.82;2.65;;;17.10;79.50;;;;;;5096778;28;20028;-76
2021/08/16 03:53:15;;;;;;;10.05;3.20;;;17.20;79.70;;;;;;5084935;28;20051;-76
2021/08/16 03:55:41;;;;;;;13.32;3.63;;;17.10;79.70;;;;;;5077056;28;20028;-76
2021/08/16 03:58:07;;;;;;;10.07;2.85;;;17.10;79.90;;;;;;5060370;28;20028;-76
2021/08/16 04:00:33;;;;;;;12.88;2.90;;;17.10;80.00;;;;;;5094063;28;20028;-75
2021/08/16 04:02:59;;;;;;;9.27;2.75;;;17.20;80.00;;;;;;5077052;28;20692;-76
2021/08/16 04:05:25;;;;;;;11.32;3.42;;;17.10;80.00;;;;;;5077028;28;20056;-76
2021/08/16 04:07:50;;;;;;;10.25;3.55;;;17.10;80.10;;;;;;5103021;28;20030;-76
2021/08/16 04:10:17;;;;;;;10.00;2.70;;;17.10;80.20;;;;;;5082114;28;20356;-76
2021/08/16 04:12:44;;;;;;;8.15;2.78;;;17.10;80.30;;;;;;5101248;28;20068;-76
2021/08/16 04:15:24;;;;;;;8.73;3.03;;;17.00;80.40;;;;;;5114651;28;20036;-76
2021/08/16 04:17:50;;;;;;;10.13;2.38;;;17.00;80.50;;;;;;5113615;28;20028;-76
2021/08/16 04:20:16;;;;;;;13.15;2.58;;;17.00;80.60;;;;;;5115467;28;20032;-76
2021/08/16 04:22:43;;;;;;;10.13;2.65;;;17.00;80.60;;;;;;5114948;28;20027;-76
2021/08/16 04:25:12;;;;;;;10.82;2.97;;;17.00;80.60;;;;;;5112709;28;20031;-76
2021/08/16 04:27:39;;;;;;;10.82;2.70;;;17.00;80.60;;;;;;5097895;28;20031;-77
2021/08/16 04:30:06;;;;;;;14.80;3.33;;;17.00;80.60;;;;;;5093523;28;20016;-75
2021/08/16 04:32:32;;;;;;;11.35;2.60;;;17.00;80.80;;;;;;5093116;28;20028;-76
2021/08/16 04:34:58;;;;;;;8.65;2.50;;;17.00;80.80;;;;;;5075070;28;20040;-76
2021/08/16 04:37:23;;;;;;;9.18;2.80;;;17.10;80.80;;;;;;5075188;28;20036;-77
2021/08/16 04:39:49;;;;;;;14.45;3.42;;;17.10;80.80;;;;;;5074311;28;20386;-76
2021/08/16 04:42:15;;;;;;;9.50;3.05;;;17.10;80.80;;;;;;5092526;28;20031;-77
2021/08/16 04:44:40;;;;;;;8.18;2.53;;;17.10;80.90;;;;;;5091278;28;20028;-85
2021/08/16 04:47:06;;;;;;;10.98;2.30;;;17.10;80.90;;;;;;5105125;28;20116;-77
2021/08/16 04:49:32;;;;;;;8.52;2.38;;;17.10;81.00;;;;;;5111556;28;20036;-76
2021/08/16 04:51:58;;;;;;;12.60;3.10;;;17.10;81.10;;;;;;5111347;28;20051;-77
2021/08/16 04:54:23;;;;;;;9.90;2.90;;;17.10;81.20;;;;;;5095729;28;20536;-76
2021/08/16 04:56:49;;;;;;;14.65;3.20;;;17.10;81.10;;;;;;5113461;28;20035;-77
2021/08/16 04:59:15;;;;;;;18.95;4.65;;;17.20;81.10;;;;;;5112616;28;20067;-77
2021/08/16 05:01:41;;;;;;;11.85;3.30;;;17.20;81.20;;;;;;5095906;28;20474;-75
2021/08/16 05:04:07;;;;;;;10.68;2.85;;;17.20;81.30;;;;;;5111694;28;20052;-76
2021/08/16 05:06:33;;;;;;;13.10;3.17;;;17.20;81.40;;;;;;5113328;28;20118;-76
2021/08/16 05:09:03;;;;;;;13.32;2.78;;;17.10;81.40;;;;;;5112096;27;20765;-76
2021/08/16 05:11:30;;;;;;;12.90;2.80;;;17.20;81.60;;;;;;5112699;28;20506;-76
2021/08/16 05:13:56;;;;;;;11.15;2.63;;;17.20;81.60;;;;;;5111652;28;20027;-76
2021/08/16 05:16:25;;;;;;;10.68;2.47;;;17.20;81.60;;;;;;5112552;28;20361;-75
2021/08/16 05:18:52;;;;;;;14.57;3.25;;;17.20;81.60;;;;;;5113809;28;20046;-76
2021/08/16 05:21:20;;;;;;;13.65;2.42;;;17.20;81.70;;;;;;5113436;28;20024;-75
2021/08/16 05:23:46;;;;;;;9.98;2.13;;;17.30;81.70;;;;;;5113180;28;20464;-83
2021/08/16 05:26:12;;;;;;;9.35;2.08;;;17.30;81.60;;;;;;5112116;28;20115;-77
2021/08/16 05:28:37;;;;;;;10.77;2.00;;;17.30;81.60;;;;;;5112515;28;20375;-76
2021/08/16 05:31:03;;;;;;;8.85;2.17;;;17.30;81.50;;;;;;5111675;28;20024;-78
2021/08/16 05:33:29;;;;;;;8.60;2.20;;;17.40;81.60;;;;;;5108860;28;20024;-77
2021/08/16 05:35:54;;;;;;;8.05;2.53;;;17.40;81.50;;;;;;5108043;28;20040;-75
2021/08/16 05:38:20;;;;;;;8.55;2.42;;;17.50;81.40;;;;;;5092671;28;20039;-76
2021/08/16 05:40:45;;;;;;;6.93;2.17;;;17.60;81.10;;;;;;5101067;28;20116;-77
2021/08/16 05:43:11;;;;;;;12.52;2.38;;;17.60;80.90;;;;;;5111274;28;20036;-77
2021/08/16 05:45:37;;;;;;;12.10;2.58;;;17.70;80.90;;;;;;5128860;27;20077;-78
2021/08/16 05:48:03;;;;;;;10.85;2.35;;;17.80;80.70;;;;;;5112658;28;20028;-77
2021/08/16 05:50:28;;;;;;;10.70;2.60;;;17.90;80.50;;;;;;5094885;28;20034;-76
2021/08/16 05:52:54;;;;;;;11.93;2.60;;;18.00;80.30;;;;;;5111559;28;20024;-77
2021/08/16 05:55:20;;;;;;;8.60;2.15;;;18.10;80.00;;;;;;5111832;28;20032;-77
2021/08/16 05:57:47;;;;;;;10.27;1.83;;;18.90;78.80;;;;;;5095755;28;20032;-77
2021/08/16 06:00:14;;;;;;;8.68;1.83;;;19.70;76.50;;;;;;5109919;28;20042;-78
2021/08/16 06:02:40;;;;;;;9.80;1.77;;;20.20;74.60;;;;;;5105920;28;20023;-76
2021/08/16 06:05:07;;;;;;;9.98;1.88;;;20.50;73.40;;;;;;5110938;28;20131;-77
2021/08/16 06:07:32;;;;;;;10.50;2.25;;;20.70;72.40;;;;;;5113203;28;20030;-76
2021/08/16 06:09:58;;;;;;;7.57;1.98;;;20.60;72.30;;;;;;5111321;28;20032;-76
2021/08/16 06:12:24;;;;;;;11.45;2.15;;;20.50;72.60;;;;;;5086270;28;20035;-75
2021/08/16 06:14:50;;;;;;;9.50;2.60;;;20.30;72.90;;;;;;5094135;28;20119;-77
2021/08/16 06:17:16;;;;;;;8.13;1.63;;;20.10;73.10;;;;;;5109865;28;20039;-77
2021/08/16 06:19:42;;;;;;;8.10;2.10;;;20.00;73.50;;;;;;5089550;28;20047;-76
2021/08/16 06:22:08;;;;;;;9.05;2.25;;;20.10;73.80;;;;;;5094054;28;20036;-77
2021/08/16 06:24:35;;;;;;;9.25;2.30;;;20.20;73.30;;;;;;5091021;28;20507;-77
2021/08/16 06:27:01;;;;;;;8.00;2.05;;;20.50;73.30;;;;;;5098507;28;20077;-77
2021/08/16 06:29:27;;;;;;;6.30;1.60;;;21.70;71.30;;;;;;5108054;28;20495;-78
2021/08/16 06:31:52;;;;;;;8.38;1.77;;;22.90;67.90;;;;;;5086764;28;20066;-77
2021/08/16 06:34:19;;;;;;;6.47;1.58;;;24.00;64.90;;;;;;5104241;28;20047;-75
2021/08/16 06:36:51;;;;;;;9.02;1.80;;;24.80;62.50;;;;;;5107496;28;20084;-76
2021/08/16 06:39:21;;;;;;;7.78;1.90;;;25.40;60.60;;;;;;5107114;28;20203;-75
2021/08/16 06:41:51;;;;;;;7.30;1.73;;;25.20;60.00;;;;;;5089533;28;20028;-75
2021/08/16 06:44:18;;;;;;;10.02;1.60;;;24.50;60.80;;;;;;5106326;28;20664;-77
2021/08/16 06:46:45;;;;;;;4.45;1.08;;;23.80;62.20;;;;;;5089372;28;20059;-77
2021/08/16 06:49:12;;;;;;;4.35;1.48;;;23.10;63.70;;;;;;5108589;28;20044;-78
2021/08/16 06:51:38;;;;;;;8.32;1.92;;;22.40;65.20;;;;;;5109087;28;20161;-77
2021/08/16 06:54:03;;;;;;;6.78;1.40;;;21.80;66.60;;;;;;5110888;28;20122;-77
2021/08/16 06:56:29;;;;;;;9.05;1.70;;;21.30;67.90;;;;;;5099275;28;20402;-76
2021/08/16 06:58:55;;;;;;;8.73;1.63;;;20.90;69.00;;;;;;5101675;28;20097;-76
2021/08/16 07:01:26;;;;;;;8.50;2.38;;;20.60;70.00;;;;;;5104027;28;20066;-77
2021/08/16 07:03:58;;;;;;;8.10;1.90;;;20.30;71.10;;;;;;5110647;28;20130;-77
2021/08/16 07:06:24;;;;;;;8.80;1.67;;;20.10;71.70;;;;;;5110064;28;20420;-76
2021/08/16 07:08:50;;;;;;;8.13;2.40;;;19.90;72.40;;;;;;5108798;28;20016;-76
2021/08/16 07:11:16;;;;;;;10.30;2.55;;;19.80;72.90;;;;;;5110278;28;20374;-76
2021/08/16 07:13:43;;;;;;;10.10;2.15;;;19.70;73.50;;;;;;5110565;28;20019;-76
2021/08/16 07:16:08;;;;;;;11.13;2.58;;;19.60;74.00;;;;;;5113402;28;20036;-77
2021/08/16 07:18:34;;;;;;;7.18;2.60;;;19.80;74.00;;;;;;5108286;28;20050;-78
2021/08/16 07:21:02;;;;;;;10.98;2.63;;;19.90;73.90;;;;;;5109549;28;20501;-81
2021/08/16 07:23:27;;;;;;;11.10;3.17;;;19.90;73.60;;;;;;5114385;28;20023;-76
2021/08/16 07:25:55;;;;;;;8.52;2.85;;;20.00;73.60;;;;;;5128230;27;20122;-75
2021/08/16 07:28:20;;;;;;;6.97;3.28;;;20.00;74.00;;;;;;5105070;28;20190;-77
2021/08/16 07:30:46;;;;;;;11.73;3.53;;;20.00;74.00;;;;;;5076883;28;20468;-77
2021/08/16 07:33:12;;;;;;;8.05;2.35;;;19.90;74.00;;;;;;5096547;28;20066;-76
2021/08/16 07:35:37;;;;;;;10.27;2.92;;;20.00;74.00;;;;;;5091160;28;20107;-76
2021/08/16 07:38:03;;;;;;;10.75;3.00;;;19.90;74.20;;;;;;5113321;28;20039;-80
2021/08/16 07:40:29;;;;;;;10.10;2.90;;;19.80;74.40;;;;;;5113827;28;20032;-76
2021/08/16 07:42:54;;;;;;;11.18;2.70;;;19.80;74.60;;;;;;5113690;28;20024;-77
2021/08/16 07:45:20;;;;;;;9.27;2.20;;;19.80;74.70;;;;;;5109438;28;20024;-80
2021/08/16 07:47:46;;;;;;;13.07;2.30;;;19.80;74.70;;;;;;5114028;28;20023;-77
2021/08/16 07:50:11;;;;;;;7.97;2.50;;;19.90;74.70;;;;;;5107926;28;20416;-76
2021/08/16 07:52:38;;;;;;;8.75;2.33;;;20.10;74.50;;;;;;5077203;28;20471;-76
2021/08/16 07:55:06;;;;;;;8.05;2.40;;;20.20;74.20;;;;;;5097329;28;20043;-75
2021/08/16 07:57:31;;;;;;;9.18;2.53;;;20.40;74.00;;;;;;5113761;28;20027;-78
2021/08/16 07:59:58;;;;;;;11.63;2.55;;;20.50;73.70;;;;;;5100698;28;20362;-77
2021/08/16 08:02:24;;;;;;;8.48;2.25;;;20.60;73.70;;;;;;5099677;28;20028;-75
2021/08/16 08:04:50;;;;;;;11.38;2.10;;;20.70;73.20;;;;;;5088254;28;20126;-76
2021/08/16 08:07:15;;;;;;;12.13;2.40;;;20.70;73.10;;;;;;5097116;28;20135;-76
2021/08/16 08:09:41;;;;;;;7.30;2.33;;;20.90;72.80;;;;;;5108789;28;20464;-75
2021/08/16 08:12:07;;;;;;;9.07;2.03;;;21.20;72.30;;;;;;5095626;28;20514;-77
2021/08/16 08:14:33;;;;;;;8.45;2.22;;;21.30;71.80;;;;;;5074529;28;20024;-78
2021/08/16 08:16:59;;;;;;;7.43;1.75;;;21.40;71.70;;;;;;5093120;28;20032;-78
2021/08/16 08:19:25;;;;;;;7.93;2.20;;;21.30;71.50;;;;;;5074779;28;20357;-77
2021/08/16 08:21:51;;;;;;;6.65;1.75;;;21.20;71.70;;;;;;5059862;28;20031;-76
2021/08/16 08:24:16;;;;;;;6.40;2.05;;;21.10;71.90;;;;;;5059295;28;20115;-76
2021/08/16 08:26:42;;;;;;;8.20;2.55;;;20.90;72.40;;;;;;5095993;28;20127;-77
2021/08/16 08:29:08;;;;;;;12.98;3.30;;;20.80;72.70;;;;;;5113514;28;20102;-75
2021/08/16 08:31:36;;;;;;;8.00;2.10;;;20.70;72.90;;;;;;5113706;28;20831;-75
2021/08/16 08:34:02;;;;;;;4.95;1.90;;;20.60;72.90;;;;;;5103651;28;20040;-76
2021/08/16 08:36:27;;;;;;;7.70;2.30;;;20.60;73.00;;;;;;5110494;28;20532;-77
2021/08/16 08:38:53;;;;;;;6.88;2.22;;;20.70;73.00;;;;;;5096932;28;20028;-76
2021/08/16 08:41:20;;;;;;;8.35;2.38;;;20.70;73.20;;;;;;5096192;28;20074;-76
2021/08/16 08:43:46;;;;;;;9.02;2.40;;;20.70;73.40;;;;;;5098476;28;20149;-75
2021/08/16 08:46:13;;;;;;;7.82;2.13;;;20.60;74.30;;;;;;5105400;28;20515;-76
2021/08/16 08:48:39;;;;;;;7.07;2.05;;;20.40;74.90;;;;;;5121792;28;20032;-77
2021/08/16 08:51:04;;;;;;;5.22;2.08;;;20.20;75.50;;;;;;5107811;28;20047;-75
2021/08/16 08:53:31;;;;;;;9.43;2.35;;;20.10;75.70;;;;;;5116655;28;20053;-76
2021/08/16 08:55:56;;;;;;;6.30;2.78;;;20.00;76.40;;;;;;5111240;28;20073;-77
2021/08/16 08:58:22;;;;;;;9.88;3.38;;;19.90;77.20;;;;;;5110225;28;20040;-78
2021/08/16 09:00:48;;;;;;;8.35;3.67;;;19.80;77.60;;;;;;5138851;27;20048;-76
2021/08/16 09:03:13;;;;;;;9.30;2.67;;;19.80;78.60;;;;;;5123036;28;20027;-76
2021/08/16 09:05:59;;;;;;;8.55;2.63;;;19.60;79.30;;;;;;5113206;28;20484;-79
2021/08/16 09:08:33;;;;;;;8.07;3.80;;;19.50;80.00;;;;;;5112744;28;20024;-78
2021/08/16 09:11:10;;;;;;;5.75;3.20;;;19.50;80.70;;;;;;5112190;28;20440;-76
2021/08/16 09:13:37;;;;;;;7.13;3.30;;;19.50;81.20;;;;;;5111300;28;20023;-75
2021/08/16 09:16:10;;;;;;;6.10;3.28;;;19.60;81.40;;;;;;5095040;28;20039;-77
2021/08/16 09:18:36;;;;;;;7.05;3.35;;;19.60;81.30;;;;;;5112374;28;20032;-77
2021/08/16 09:21:02;;;;;;;9.65;3.85;;;19.60;81.70;;;;;;5078049;28;20024;-77
2021/08/16 09:23:28;;;;;;;7.80;4.50;;;19.60;81.90;;;;;;5111139;28;20059;-77
2021/08/16 09:25:56;;;;;;;6.53;3.42;;;19.50;82.10;;;;;;5101586;28;20093;-79
2021/08/16 09:28:31;;;;;;;5.53;2.85;;;19.40;82.30;;;;;;5093022;28;20055;-82
2021/08/16 09:31:08;;;;;;;4.90;1.75;;;19.20;82.10;;;;;;5104853;28;20028;-78
2021/08/16 09:33:33;;;;;;;4.43;1.67;;;19.10;82.00;;;;;;5112470;28;20031;-78
2021/08/16 09:35:59;;;;;;;3.17;2.25;;;19.10;82.40;;;;;;5114163;28;20040;-78
2021/08/16 09:38:40;;;;;;;4.20;2.00;;;19.10;82.50;;;;;;5112739;28;20520;-79
2021/08/16 09:41:23;;;;;;;3.85;1.75;;;19.20;82.50;;;;;;5113697;28;20030;-78
2021/08/16 09:43:51;;;;;;;3.13;1.58;;;19.20;82.70;;;;;;5103105;28;20119;-78
2021/08/16 09:46:18;;;;;;;5.32;1.98;;;19.30;82.80;;;;;;5104195;28;20467;-77
2021/08/16 09:48:55;;;;;;;3.75;2.03;;;19.30;82.70;;;;;;5100875;28;20020;-77
2021/08/16 09:51:22;;;;;;;7.82;2.65;;;19.20;82.90;;;;;;5096894;28;20030;-78
2021/08/16 09:53:49;;;;;;;4.35;2.10;;;19.20;83.00;;;;;;5110369;28;20027;-76
2021/08/16 09:56:17;;;;;;;5.82;2.80;;;19.20;83.00;;;;;;5112000;28;20027;-76
2021/08/16 09:58:44;;;;;;;9.50;5.60;;;19.20;82.90;;;;;;5111277;28;20015;-76
2021/08/16 10:01:10;;;;;;;7.75;5.88;;;19.20;83.10;;;;;;5111447;28;20034;-77
2021/08/16 10:03:40;;;;;;;8.48;5.40;;;19.20;83.00;;;;;;5092731;28;20134;-77
2021/08/16 10:06:07;;;;;;;7.88;5.82;;;19.20;83.20;;;;;;5105128;28;20039;-77
2021/08/16 10:08:53;;;;;;;11.20;8.30;;;19.20;83.40;;;;;;5095403;28;20035;-77
2021/08/16 10:11:20;;;;;;;10.52;5.63;;;19.10;83.60;;;;;;5111631;28;20106;-77
2021/08/16 10:13:53;;;;;;;12.32;8.45;;;19.00;83.30;;;;;;5112303;28;20031;-78
2021/08/16 10:16:32;;;;;;;9.60;5.72;;;18.90;83.30;;;;;;5080964;28;20032;-77
2021/08/16 10:19:27;;;;;;;9.68;5.38;;;18.80;83.50;;;;;;5091201;28;20111;-76
2021/08/16 10:21:59;;;;;;;8.18;4.95;;;18.70;83.60;;;;;;5085483;28;20074;-77
2021/08/16 10:24:28;;;;;;;9.15;5.15;;;18.70;83.40;;;;;;5110663;28;20070;-80
2021/08/16 10:26:55;;;;;;;5.55;3.30;;;19.00;83.60;;;;;;5110905;28;20027;-77
2021/08/16 10:29:22;;;;;;;5.15;2.85;;;19.50;83.00;;;;;;5112547;28;20024;-77
2021/08/16 10:31:52;;;;;;;6.80;3.13;;;19.90;82.10;;;;;;5111072;28;20031;-76
2021/08/16 10:34:44;;;;;;;6.90;2.90;;;20.20;81.10;;;;;;5095440;28;20028;-76
2021/08/16 10:37:13;;;;;;;6.30;2.85;;;20.40;80.30;;;;;;5090079;28;20044;-77
2021/08/16 10:39:41;;;;;;;5.20;2.50;;;20.40;79.60;;;;;;5091108;28;20016;-77
2021/08/16 10:42:09;;;;;;;5.57;2.42;;;20.30;79.40;;;;;;5091529;28;20031;-76
2021/08/16 10:45:03;;;;;;;5.15;2.65;;;20.10;79.40;;;;;;5095226;28;20038;-77
2021/08/16 10:47:30;;;;;;;7.22;2.90;;;19.80;79.50;;;;;;5108600;28;20063;-84
2021/08/16 10:50:02;;;;;;;9.10;2.75;;;19.70;80.10;;;;;;5106727;28;20052;-78
2021/08/16 10:52:27;;;;;;;7.32;3.50;;;19.50;80.30;;;;;;5103293;28;20090;-77
2021/08/16 10:54:53;;;;;;;5.78;2.80;;;19.30;80.60;;;;;;5108865;28;20743;-77
2021/08/16 10:57:19;;;;;;;8.32;3.85;;;19.10;79.70;;;;;;5101072;28;20467;-77
2021/08/16 10:59:45;;;;;;;6.07;3.40;;;18.90;80.20;;;;;;5073177;28;20513;-77
2021/08/16 11:02:11;;;;;;;7.40;3.97;;;18.90;79.90;;;;;;5070345;28;20123;-78
2021/08/16 11:04:40;;;;;;;7.35;3.72;;;18.90;79.60;;;;;;5084431;28;20104;-77
2021/08/16 11:07:08;;;;;;;8.73;4.22;;;18.90;79.00;;;;;;5111472;28;20079;-77
2021/08/16 11:09:36;;;;;;;6.68;3.05;;;19.00;78.80;;;;;;5109925;28;20027;-82
2021/08/16 11:12:09;;;;;;;7.07;3.30;;;19.00;78.40;;;;;;5112183;28;20031;-79
2021/08/16 11:14:40;;;;;;;7.72;3.70;;;18.90;78.20;;;;;;5111000;28;20042;-80
2021/08/16 11:17:06;;;;;;;8.30;3.33;;;18.70;78.70;;;;;;5105850;28;20023;-80
2021/08/16 11:19:46;;;;;;;6.32;2.78;;;18.70;78.70;;;;;;5110755;28;20391;-79
2021/08/16 11:22:13;;;;;;;7.63;3.13;;;18.60;79.00;;;;;;5099594;28;20026;-78
2021/08/16 11:24:41;;;;;;;8.50;3.60;;;18.60;79.20;;;;;;5092574;28;20158;-80
2021/08/16 11:27:10;;;;;;;9.32;3.95;;;18.50;79.30;;;;;;5105083;28;20114;-79
2021/08/16 11:29:38;;;;;;;11.23;5.50;;;18.40;79.50;;;;;;5103681;28;20027;-85
2021/08/16 11:32:05;;;;;;;8.55;5.53;;;18.30;80.00;;;;;;5104010;28;20031;-79
2021/08/16 11:34:50;;;;;;;9.68;5.93;;;18.30;80.20;;;;;;5111956;28;20042;-80
2021/08/16 11:37:17;;;;;;;12.20;6.20;;;18.40;80.40;;;;;;5097865;28;20042;-80
2021/08/16 11:39:47;;;;;;;10.55;5.13;;;18.40;80.20;;;;;;5094741;28;20173;-81
2021/08/16 11:42:13;;;;;;;11.57;6.13;;;18.60;80.20;;;;;;5111807;28;20105;-79
2021/08/16 11:44:39;;;;;;;8.10;4.68;;;18.80;80.20;;;;;;5111847;28;20057;-86
2021/08/16 11:47:05;;;;;;;10.02;4.50;;;19.00;79.70;;;;;;5111811;28;20111;-81
2021/08/16 11:49:36;;;;;;;10.27;5.00;;;19.20;79.70;;;;;;5112567;28;20027;-81
2021/08/16 11:52:02;;;;;;;8.13;4.05;;;19.40;79.10;;;;;;5112702;28;20027;-81
2021/08/16 11:54:33;;;;;;;8.43;4.07;;;19.50;78.30;;;;;;5107233;28;20032;-81
2021/08/16 11:57:01;;;;;;;10.40;4.35;;;19.50;77.50;;;;;;5107949;28;20024;-81
2021/08/16 11:59:27;;;;;;;6.15;3.78;;;19.50;77.10;;;;;;5107978;28;20028;-81
2021/08/16 12:01:55;;;;;;;9.73;4.65;;;19.40;76.60;;;;;;5090983;28;20365;-79
2021/08/16 12:04:21;;;;;;;9.57;4.97;;;19.30;75.70;;;;;;5104270;28;20453;-80
2021/08/16 12:06:50;;;;;;;16.75;4.97;;;19.20;75.50;;;;;;5113621;28;20027;-79
2021/08/16 12:09:15;;;;;;;11.93;5.18;;;19.20;75.60;;;;;;5114700;28;20041;-79
2021/08/16 12:11:41;;;;;;;13.40;6.35;;;19.30;75.60;;;;;;5096350;28;20463;-82
2021/08/16 12:14:07;;;;;;;15.05;6.57;;;19.50;75.20;;;;;;5113548;28;20110;-80
2021/08/16 12:16:35;;;;;;;14.50;7.35;;;19.80;75.00;;;;;;5113182;28;20119;-79
2021/08/16 12:19:02;;;;;;;14.13;7.60;;;20.00;74.00;;;;;;5096338;28;20015;-78
2021/08/16 12:21:28;;;;;;;12.77;7.60;;;20.20;72.70;;;;;;5112912;28;20062;-78
2021/08/16 12:23:58;;;;;;;15.65;9.10;;;20.30;71.80;;;;;;5114069;28;20057;-78
2021/08/16 12:26:42;;;;;;;14.63;8.85;;;20.40;70.90;;;;;;5079866;28;20024;-81
2021/08/16 12:29:18;;;;;;;14.70;8.77;;;20.40;70.10;;;;;;5102621;28;20088;-86
2021/08/16 12:31:44;;;;;;;13.23;8.98;;;20.40;69.80;;;;;;5100995;28;20888;-85
2021/08/16 12:34:12;;;;;;;20.45;9.90;;;20.40;69.80;;;;;;5104507;28;20027;-80
2021/08/16 12:36:40;;;;;;;16.75;9.55;;;20.30;69.40;;;;;;5086097;28;20036;-79
2021/08/16 12:39:14;;;;;;;16.00;10.25;;;20.30;69.40;;;;;;5087669;28;20032;-81
2021/08/16 12:41:41;;;;;;;14.18;9.95;;;20.30;69.90;;;;;;5102846;28;20026;-81
2021/08/16 12:44:24;;;;;;;15.30;10.10;;;20.30;70.00;;;;;;5096618;28;20854;-82